Terminal Aerodrome Forecast
Issued by NWS

Home | Current Version | Previous Version | Text Only | Print | Product List | Glossary On
Versions: 1 2 3 4 5 6 7 8 9 10 11 12 13 14 15 16 17 18 19 20
000
FTAK31 PAJN 301400 AAA
TAFAKT
TAF AMD
PAKT 301400Z 3014/0112 VRB03KT P6SM VCSH BKN005 BKN030 OVC040
     FM301600 14005KT P6SM VCSH SCT004 SCT015 OVC030
     FM301800 11010KT P6SM -SHRA SCT005 BKN030 OVC050
     FM302200 11009KT P6SM VCSH BKN040 OVC060
     FM010300 14006KT P6SM VCSH BKN050 OVC070
     FM010800 VRB05KT P6SM VCSH BKN050 OVC070
      AMD NOT SKED=

USA.gov is the U.S. government's official web portal to all federal, state and local government web resources and services.